Terminal Aerodrome Forecast
Issued by NWS Sioux Falls, SD

Home | Current Version | Previous Version | Graphics & Text | Print | Product List | Glossary On
Versions: 1 2 3 4 5 6 7 8 9 10 11 12
000
FTUS43 KFSD 222329
TAFHON
TAF
KHON 222329Z 2300/2324 33007KT P6SM FEW250
     FM231200 31013KT P6SM FEW090
     FM231400 32015G26KT P6SM BKN040
     FM232100 32017G27KT P6SM FEW200=

USA.gov is the U.S. government's official web portal to all federal, state and local government web resources and services.